createdAt,value
2022-10-02T00:01:03.818Z,99.95
2022-10-02T00:07:49.800Z,99.99
2022-10-02T00:09:48.550Z,99.99
2022-10-02T00:12:19.561Z,99.99
2022-10-02T00:15:47.602Z,99.99
2022-10-02T00:18:18.390Z,99.99
2022-10-02T00:20:47.082Z,99.99
2022-10-02T00:22:42.922Z,99.99
2022-10-02T00:25:09.824Z,99.99
2022-10-02T00:33:01.398Z,99.99
2022-10-02T00:35:49.867Z,99.99
2022-10-02T00:40:48.320Z,99.99
2022-10-02T00:44:32.751Z,99.99
2022-10-02T00:48:45.815Z,99.99
2022-10-02T00:50:43.645Z,99.99
2022-10-02T00:54:23.280Z,99.99
2022-10-02T00:56:13.126Z,99.99
2022-10-02T00:59:55.943Z,99.99
2022-10-02T01:02:13.463Z,99.99
2022-10-02T01:04:04.404Z,99.99
2022-10-02T01:06:26.356Z,99.99
2022-10-02T01:10:31.381Z,99.99
2022-10-02T01:13:47.467Z,99.99
2022-10-02T01:16:43.762Z,99.99
2022-10-02T01:18:12.821Z,99.99
2022-10-02T01:20:06.134Z,99.99
2022-10-02T01:22:43.450Z,99.99
2022-10-02T01:25:23.622Z,99.99
2022-10-02T01:28:17.837Z,99.99
2022-10-02T01:33:16.039Z,99.99
2022-10-02T01:35:55.193Z,99.99
2022-10-02T01:38:08.728Z,99.99
2022-10-02T01:41:20.315Z,99.99
2022-10-02T01:43:09.252Z,99.99
2022-10-02T01:47:14.403Z,99.99
2022-10-02T01:49:04.052Z,99.99
2022-10-02T01:50:33.624Z,99.99
2022-10-02T01:52:50.913Z,99.99
2022-10-02T01:54:20.362Z,99.99
2022-10-02T01:57:29.749Z,99.99
2022-10-02T02:03:28.547Z,99.99
2022-10-02T02:05:22.190Z,99.99
2022-10-02T02:06:49.992Z,99.99
2022-10-02T02:08:19.664Z,99.99
2022-10-02T02:10:08.175Z,99.99
2022-10-02T02:12:43.739Z,99.99
2022-10-02T02:16:52.636Z,99.99
2022-10-02T02:18:27.385Z,99.99
2022-10-02T02:22:18.851Z,99.99
2022-10-02T02:24:00.589Z,99.99
2022-10-02T02:28:22.754Z,99.69
2022-10-02T02:30:11.060Z,99.59
2022-10-02T02:32:13.984Z,99.49
2022-10-02T02:34:03.697Z,99.29
2022-10-02T02:36:42.134Z,99.18
2022-10-02T02:41:52.938Z,99.08
2022-10-02T02:51:05.491Z,99.02
2022-10-02T02:53:10.775Z,99.02
2022-10-02T02:57:14.255Z,99.02
2022-10-02T03:01:14.606Z,99.02
2022-10-02T03:05:17.939Z,99.02
2022-10-02T03:08:50.272Z,99.18
2022-10-02T03:10:40.001Z,99.27
2022-10-02T03:12:49.473Z,99.27
2022-10-02T03:14:40.127Z,99.38
2022-10-02T03:17:02.153Z,99.58
2022-10-02T03:20:51.081Z,99.79
2022-10-02T03:23:14.835Z,99.79
2022-10-02T03:28:03.606Z,99.99
2022-10-02T03:32:06.567Z,99.99
2022-10-02T03:33:46.291Z,99.99
2022-10-02T03:36:37.879Z,99.99
2022-10-02T03:41:11.646Z,99.99
2022-10-02T03:43:17.931Z,99.99
2022-10-02T03:45:52.832Z,99.99
2022-10-02T03:48:04.740Z,99.99
2022-10-02T03:49:33.322Z,99.99
2022-10-02T03:53:25.726Z,99.99
2022-10-02T03:55:41.231Z,99.99
2022-10-02T04:00:54.151Z,99.99
2022-10-02T04:02:43.577Z,99.99
2022-10-02T04:06:16.067Z,99.99
2022-10-02T04:09:06.251Z,99.99
2022-10-02T04:16:39.916Z,99.99
2022-10-02T04:20:03.851Z,99.99
2022-10-02T04:29:30.650Z,99.99
2022-10-02T04:32:50.631Z,99.99
2022-10-02T04:37:09.708Z,99.99
2022-10-02T04:39:20.065Z,99.99
2022-10-02T04:41:39.430Z,99.99
2022-10-02T04:46:11.409Z,99.99
2022-10-02T04:50:38.531Z,99.99
2022-10-02T04:52:07.253Z,99.99
2022-10-02T04:58:52.535Z,99.99
2022-10-02T05:04:04.455Z,99.99
2022-10-02T05:06:10.000Z,99.99
2022-10-02T05:08:02.032Z,99.99
2022-10-02T05:10:21.989Z,99.99
2022-10-02T05:22:13.710Z,99.99
2022-10-02T05:24:21.995Z,99.99
2022-10-02T05:27:39.822Z,99.99
2022-10-02T05:29:48.214Z,99.99
2022-10-02T05:32:29.896Z,99.99
2022-10-02T05:34:20.577Z,99.99
2022-10-02T05:37:20.075Z,99.99
2022-10-02T05:43:52.405Z,99.99
2022-10-02T05:46:01.496Z,99.99
2022-10-02T05:50:25.086Z,99.99
2022-10-02T05:51:56.491Z,99.99
2022-10-02T05:55:04.264Z,99.99
2022-10-02T05:56:36.581Z,99.99
2022-10-02T05:58:08.364Z,99.99
2022-10-02T06:00:30.616Z,99.99
2022-10-02T06:03:44.360Z,99.99
2022-10-02T06:05:17.680Z,99.99
2022-10-02T06:07:20.988Z,99.99
2022-10-02T06:08:51.956Z,99.99
2022-10-02T06:13:57.929Z,99.99
2022-10-02T06:16:37.442Z,99.99
2022-10-02T06:24:34.654Z,99.99
2022-10-02T06:26:34.259Z,99.99
2022-10-02T06:29:30.550Z,99.99
2022-10-02T06:31:03.497Z,99.99
2022-10-02T06:34:37.332Z,99.99
2022-10-02T06:39:06.763Z,99.99
2022-10-02T06:41:26.157Z,99.99
2022-10-02T06:42:59.375Z,99.99
2022-10-02T06:44:28.096Z,99.99
2022-10-02T06:46:03.387Z,99.99
2022-10-02T06:47:42.186Z,99.99
2022-10-02T06:49:18.412Z,99.99
2022-10-02T06:50:44.435Z,99.99
2022-10-02T06:58:37.659Z,99.99
2022-10-02T07:07:42.081Z,99.99
2022-10-02T07:09:15.523Z,99.99
2022-10-02T07:11:27.282Z,99.99
2022-10-02T07:14:11.379Z,99.99
2022-10-02T07:18:53.161Z,99.99
2022-10-02T07:24:34.974Z,99.99
2022-10-02T07:35:28.659Z,99.99
2022-10-02T07:37:32.681Z,99.99
2022-10-02T07:45:50.923Z,99.99
2022-10-02T07:47:41.532Z,99.99
2022-10-02T07:51:29.278Z,99.99
2022-10-02T07:59:53.188Z,99.99
2022-10-02T08:01:47.561Z,99.99
2022-10-02T08:05:49.125Z,99.99
2022-10-02T08:10:25.966Z,99.99
2022-10-02T08:13:25.205Z,99.99
2022-10-02T08:20:13.213Z,99.99
2022-10-02T08:28:56.538Z,99.99
2022-10-02T08:35:12.899Z,99.99
2022-10-02T08:38:39.573Z,99.99
2022-10-02T08:48:36.566Z,99.58
2022-10-02T08:50:25.346Z,99.48
2022-10-02T09:06:19.562Z,97.56
2022-10-02T09:09:05.181Z,96.95
2022-10-02T09:10:33.405Z,97.05
2022-10-02T09:14:07.649Z,95.79
2022-10-02T09:17:19.008Z,95.38
2022-10-02T09:20:00.471Z,94.37
2022-10-02T09:22:05.178Z,93.76
2022-10-02T09:25:42.411Z,93.86
2022-10-02T09:28:43.871Z,94.02
2022-10-02T09:31:21.816Z,94.02
2022-10-02T09:32:53.527Z,94.12
2022-10-02T09:35:39.365Z,93.81
2022-10-02T09:37:59.341Z,92.40
2022-10-02T09:39:11.927Z,91.74
2022-10-02T09:40:41.837Z,91.54
2022-10-02T09:44:27.471Z,91.13
2022-10-02T09:47:38.665Z,90.12
2022-10-02T09:49:12.331Z,89.81
2022-10-02T09:54:23.212Z,89.37
2022-10-02T09:55:54.058Z,89.06
2022-10-02T09:57:24.112Z,89.17
2022-10-02T09:59:13.133Z,89.17
2022-10-02T10:02:28.506Z,88.66
2022-10-02T10:03:58.329Z,88.72
2022-10-02T10:05:27.481Z,88.42
2022-10-02T10:06:53.542Z,87.00
2022-10-02T10:09:03.234Z,86.69
2022-10-02T10:11:32.792Z,86.29
2022-10-02T10:13:34.422Z,85.58
2022-10-02T10:17:50.829Z,85.68
2022-10-02T10:19:40.487Z,86.59
2022-10-02T10:20:49.836Z,85.84
2022-10-02T10:22:23.303Z,85.44
2022-10-02T10:24:32.159Z,83.21
2022-10-02T10:26:54.929Z,83.61
2022-10-02T10:29:26.896Z,83.72
2022-10-02T10:31:56.294Z,83.37
2022-10-02T10:33:23.539Z,82.70
2022-10-02T10:42:17.381Z,81.78
2022-10-02T10:55:25.328Z,79.05
2022-10-02T10:57:49.409Z,80.16
2022-10-02T11:05:12.188Z,78.58
2022-10-02T11:07:16.224Z,78.17
2022-10-02T11:16:16.307Z,78.72
2022-10-02T11:18:28.505Z,80.13
2022-10-02T11:23:02.888Z,79.67
2022-10-02T11:25:30.154Z,80.18
2022-10-02T11:29:36.866Z,80.27
2022-10-02T11:33:29.265Z,80.58
2022-10-02T11:36:46.610Z,80.18
2022-10-02T11:41:31.025Z,79.57
2022-10-02T11:42:34.611Z,79.46
2022-10-02T11:44:55.631Z,79.06
2022-10-02T11:47:24.639Z,77.84
2022-10-02T11:49:54.459Z,77.84
2022-10-02T11:52:25.612Z,78.11
2022-10-02T11:54:18.495Z,78.92
2022-10-02T11:57:00.159Z,76.35
2022-10-02T11:58:31.373Z,75.81
2022-10-02T12:02:18.238Z,73.72
2022-10-02T12:04:03.649Z,73.28
2022-10-02T12:06:49.290Z,72.24
2022-10-02T12:08:23.093Z,71.70
2022-10-02T12:09:56.574Z,71.40
2022-10-02T12:13:09.369Z,69.79
2022-10-02T12:22:06.956Z,71.06
2022-10-02T12:24:16.055Z,72.38
2022-10-02T12:28:58.193Z,70.96
2022-10-02T12:33:07.295Z,72.64
2022-10-02T12:37:43.148Z,68.01
2022-10-02T12:39:52.329Z,68.77
2022-10-02T12:42:48.760Z,68.41
2022-10-02T12:45:00.168Z,68.91
2022-10-02T12:47:08.171Z,68.37
2022-10-02T12:51:44.837Z,67.74
2022-10-02T12:54:08.680Z,65.95
2022-10-02T12:56:36.009Z,67.43
2022-10-02T12:58:25.774Z,66.33
2022-10-02T13:01:25.764Z,67.40
2022-10-02T13:04:57.326Z,67.10
2022-10-02T13:08:41.698Z,67.94
2022-10-02T13:15:35.886Z,66.36
2022-10-02T13:17:26.726Z,62.64
2022-10-02T13:20:04.432Z,63.14
2022-10-02T13:23:27.140Z,64.02
2022-10-02T13:24:58.142Z,62.91
2022-10-02T13:30:52.844Z,64.12
2022-10-02T13:32:54.535Z,63.31
2022-10-02T13:35:26.309Z,62.91
2022-10-02T13:38:06.509Z,63.31
2022-10-02T13:39:38.297Z,61.73
2022-10-02T13:41:27.696Z,62.54
2022-10-02T13:46:51.252Z,60.05
2022-10-02T13:57:20.100Z,60.78
2022-10-02T13:59:27.415Z,61.69
2022-10-02T14:02:38.720Z,62.49
2022-10-02T14:04:28.570Z,63.30
2022-10-02T14:06:17.429Z,63.40
2022-10-02T14:11:02.941Z,64.21
2022-10-02T14:14:26.944Z,64.51
2022-10-02T14:16:58.171Z,64.24
2022-10-02T14:22:56.812Z,61.92
2022-10-02T14:29:50.996Z,63.46
2022-10-02T14:31:41.152Z,64.07
2022-10-02T14:33:14.417Z,63.46
2022-10-02T14:35:32.705Z,64.27
2022-10-02T14:40:02.643Z,64.98
2022-10-02T14:43:12.852Z,65.18
2022-10-02T14:45:52.152Z,63.76
2022-10-02T14:49:02.052Z,63.39
2022-10-02T14:51:10.075Z,62.79
2022-10-02T14:54:25.061Z,63.09
2022-10-02T14:56:00.898Z,63.93
2022-10-02T14:57:44.903Z,64.33
2022-10-02T15:00:25.595Z,64.16
2022-10-02T15:03:54.017Z,64.46
2022-10-02T15:06:34.999Z,63.76
2022-10-02T15:09:44.489Z,63.45
2022-10-02T15:11:34.054Z,63.76
2022-10-02T15:13:54.414Z,64.16
2022-10-02T15:16:34.963Z,64.67
2022-10-02T15:19:05.104Z,64.49
2022-10-02T15:21:15.546Z,64.70
2022-10-02T15:28:36.282Z,65.20
2022-10-02T15:30:18.011Z,65.30
2022-10-02T15:33:29.547Z,64.39
2022-10-02T15:34:47.579Z,64.39
2022-10-02T15:35:26.586Z,63.68
2022-10-02T15:41:19.620Z,63.89
2022-10-02T15:43:09.729Z,64.09
2022-10-02T15:45:02.871Z,64.39
2022-10-02T15:47:08.082Z,65.20
2022-10-02T15:54:57.118Z,65.61
2022-10-02T15:57:19.710Z,65.61
2022-10-02T15:59:22.315Z,66.01
2022-10-02T16:03:29.214Z,65.73
2022-10-02T16:07:02.448Z,65.03
2022-10-02T16:16:23.923Z,65.47
2022-10-02T16:18:29.730Z,64.35
2022-10-02T16:21:21.604Z,64.35
2022-10-02T16:27:13.447Z,64.48
2022-10-02T16:30:12.371Z,65.59
2022-10-02T16:33:51.832Z,66.50
2022-10-02T16:38:05.743Z,67.25
2022-10-02T16:41:01.308Z,67.96
2022-10-02T16:44:45.309Z,68.36
2022-10-02T16:46:34.610Z,68.36
2022-10-02T16:48:01.519Z,68.87
2022-10-02T16:49:31.746Z,68.87
2022-10-02T16:53:09.562Z,69.51
2022-10-02T16:54:41.767Z,69.81
2022-10-02T16:59:02.692Z,70.42
2022-10-02T17:02:18.237Z,70.93
2022-10-02T17:04:22.176Z,70.96
2022-10-02T17:05:52.996Z,71.16
2022-10-02T17:07:22.216Z,71.47
2022-10-02T17:09:55.068Z,71.57
2022-10-02T17:14:00.573Z,72.28
2022-10-02T17:16:21.530Z,72.58
2022-10-02T17:18:20.255Z,72.82
2022-10-02T17:19:48.731Z,73.22
2022-10-02T17:21:18.700Z,73.43
2022-10-02T17:25:02.995Z,73.53
2022-10-02T17:30:30.675Z,73.77
2022-10-02T17:32:28.531Z,73.87
2022-10-02T17:34:48.117Z,74.17
2022-10-02T17:38:40.668Z,74.68
2022-10-02T17:40:39.572Z,74.68
2022-10-02T17:42:08.974Z,74.78
2022-10-02T17:43:40.169Z,75.02
2022-10-02T17:45:39.006Z,75.12
2022-10-02T17:47:28.889Z,75.32
2022-10-02T17:49:27.972Z,75.43
2022-10-02T17:51:47.497Z,75.52
2022-10-02T17:56:14.997Z,76.14
2022-10-02T17:59:52.063Z,76.28
2022-10-02T18:02:45.292Z,76.48
2022-10-02T18:06:54.027Z,76.78
2022-10-02T18:08:56.059Z,76.98
2022-10-02T18:10:29.389Z,77.29
2022-10-02T18:17:25.083Z,77.73
2022-10-02T18:19:13.643Z,77.83
2022-10-02T18:20:45.412Z,78.04
2022-10-02T18:22:35.343Z,78.24
2022-10-02T18:25:50.145Z,78.64
2022-10-02T18:29:46.130Z,78.75
2022-10-02T18:32:04.676Z,78.85
2022-10-02T18:34:23.729Z,79.09
2022-10-02T18:39:25.824Z,79.50
2022-10-02T18:40:56.037Z,79.60
2022-10-02T18:42:45.818Z,79.80
2022-10-02T18:44:20.869Z,79.90
2022-10-02T18:47:40.795Z,80.41
2022-10-02T18:49:09.320Z,80.51
2022-10-02T18:52:39.389Z,80.85
2022-10-02T18:54:32.052Z,80.85
2022-10-02T18:58:21.894Z,81.16
2022-10-02T19:00:42.660Z,81.26
2022-10-02T19:02:10.726Z,81.26
2022-10-02T19:04:30.573Z,81.71
2022-10-02T19:11:16.244Z,82.01
2022-10-02T19:14:09.390Z,82.21
2022-10-02T19:15:50.045Z,82.32
2022-10-02T19:19:32.122Z,82.52
2022-10-02T19:23:27.534Z,82.76
2022-10-02T19:26:08.919Z,82.97
2022-10-02T19:29:22.557Z,83.27
2022-10-02T19:31:31.125Z,83.27
2022-10-02T19:35:57.336Z,83.58
2022-10-02T19:37:55.981Z,83.78
2022-10-02T19:41:37.725Z,84.33
2022-10-02T19:43:08.909Z,84.33
2022-10-02T19:45:46.777Z,84.43
2022-10-02T19:51:34.798Z,84.74
2022-10-02T19:53:35.723Z,84.94
2022-10-02T19:55:05.167Z,84.94
2022-10-02T19:57:51.578Z,84.98
2022-10-02T20:03:59.160Z,85.19
2022-10-02T20:05:52.882Z,85.39
2022-10-02T20:09:17.534Z,85.69
2022-10-02T20:11:43.591Z,85.80
2022-10-02T20:16:07.089Z,85.90
2022-10-02T20:20:26.328Z,86.24
2022-10-02T20:22:45.213Z,86.35
2022-10-02T20:26:06.876Z,86.55
2022-10-02T20:28:56.089Z,86.65
2022-10-02T20:31:37.531Z,86.76
2022-10-02T20:34:02.150Z,86.76
2022-10-02T20:36:05.541Z,86.86
2022-10-02T20:39:51.187Z,86.76
2022-10-02T20:41:49.353Z,86.96
2022-10-02T20:45:30.711Z,87.06
2022-10-02T20:48:55.600Z,87.16
2022-10-02T20:53:09.260Z,87.26
2022-10-02T20:55:58.117Z,87.47
2022-10-02T20:58:24.750Z,87.67
2022-10-02T21:00:02.023Z,87.92
2022-10-02T21:01:32.966Z,88.12
2022-10-02T21:03:09.355Z,88.12
2022-10-02T21:06:55.163Z,88.26
2022-10-02T21:08:42.175Z,88.47
2022-10-02T21:13:13.978Z,88.88
2022-10-02T21:16:13.979Z,89.12
2022-10-02T21:22:53.938Z,89.43
2022-10-02T21:25:01.230Z,89.78
2022-10-02T21:33:07.447Z,90.02
2022-10-02T21:34:37.623Z,90.12
2022-10-02T21:36:27.107Z,90.12
2022-10-02T21:38:17.240Z,90.23
2022-10-02T21:41:48.552Z,90.53
2022-10-02T21:43:37.384Z,90.68
2022-10-02T21:47:08.878Z,90.78
2022-10-02T21:49:14.977Z,90.88
2022-10-02T21:50:47.867Z,90.88
2022-10-02T21:53:35.667Z,91.03
2022-10-02T21:56:36.130Z,91.23
2022-10-02T21:58:32.967Z,91.23
2022-10-02T22:00:05.572Z,91.44
2022-10-02T22:04:20.753Z,91.85
2022-10-02T22:06:09.651Z,91.95
2022-10-02T22:08:54.125Z,92.05
2022-10-02T22:14:56.551Z,92.10
2022-10-02T22:19:14.656Z,92.10
2022-10-02T22:21:57.273Z,92.19
2022-10-02T22:25:14.388Z,92.34
2022-10-02T22:27:12.878Z,92.14
2022-10-02T22:29:46.549Z,92.24
2022-10-02T22:33:51.844Z,92.65
2022-10-02T22:35:24.020Z,92.75
2022-10-02T22:38:15.075Z,92.85
2022-10-02T22:43:14.208Z,92.90
2022-10-02T22:46:29.808Z,93.00
2022-10-02T22:50:12.958Z,93.00
2022-10-02T22:53:38.811Z,93.00
2022-10-02T22:55:10.661Z,93.00
2022-10-02T22:58:46.786Z,92.90
2022-10-02T23:00:18.902Z,92.90
2022-10-02T23:03:41.293Z,93.04
2022-10-02T23:05:14.569Z,93.15
2022-10-02T23:07:49.791Z,93.25
2022-10-02T23:11:49.370Z,93.35
2022-10-02T23:13:19.393Z,93.45
2022-10-02T23:14:47.730Z,93.35
2022-10-02T23:16:50.696Z,93.35
2022-10-02T23:18:28.751Z,93.45
2022-10-02T23:24:39.186Z,93.55
2022-10-02T23:26:12.111Z,93.55
2022-10-02T23:30:42.785Z,93.96
2022-10-02T23:32:28.884Z,93.96
2022-10-02T23:34:28.788Z,94.11
2022-10-02T23:37:10.654Z,94.21
2022-10-02T23:40:11.002Z,94.11
2022-10-02T23:42:13.552Z,94.11
2022-10-02T23:43:45.270Z,94.11
2022-10-02T23:46:18.595Z,94.01
2022-10-02T23:48:18.381Z,94.01
2022-10-02T23:51:33.848Z,94.11
2022-10-02T23:54:01.916Z,94.21
2022-10-02T23:58:29.512Z,94.15
